sensor_id;sensor_type;location;lat;lon;timestamp;temperature;humidity
38333;DHT22;25748;46.670;14.272;2023-09-19T00:02:18;19.00;79.90
38333;DHT22;25748;46.670;14.272;2023-09-19T00:04:44;19.00;80.00
38333;DHT22;25748;46.670;14.272;2023-09-19T00:07:10;19.00;80.00
38333;DHT22;25748;46.670;14.272;2023-09-19T00:09:35;19.00;79.90
38333;DHT22;25748;46.670;14.272;2023-09-19T00:12:05;19.00;80.10
38333;DHT22;25748;46.670;14.272;2023-09-19T00:14:32;19.00;80.10
38333;DHT22;25748;46.670;14.272;2023-09-19T00:17:01;19.00;80.10
38333;DHT22;25748;46.670;14.272;2023-09-19T00:19:36;19.00;80.00
38333;DHT22;25748;46.670;14.272;2023-09-19T00:22:03;19.00;80.10
38333;DHT22;25748;46.670;14.272;2023-09-19T00:24:29;19.00;80.10
38333;DHT22;25748;46.670;14.272;2023-09-19T00:26:56;19.00;80.10
38333;DHT22;25748;46.670;14.272;2023-09-19T00:29:25;19.00;80.20
38333;DHT22;25748;46.670;14.272;2023-09-19T00:31:55;19.10;80.40
38333;DHT22;25748;46.670;14.272;2023-09-19T00:34:21;19.00;80.40
38333;DHT22;25748;46.670;14.272;2023-09-19T00:36:47;19.00;80.40
38333;DHT22;25748;46.670;14.272;2023-09-19T00:39:12;19.00;80.40
38333;DHT22;25748;46.670;14.272;2023-09-19T00:41:38;19.00;80.80
38333;DHT22;25748;46.670;14.272;2023-09-19T00:44:04;19.00;81.00
38333;DHT22;25748;46.670;14.272;2023-09-19T00:46:31;19.00;81.10
38333;DHT22;25748;46.670;14.272;2023-09-19T00:48:58;19.00;81.20
38333;DHT22;25748;46.670;14.272;2023-09-19T00:51:25;19.00;81.30
38333;DHT22;25748;46.670;14.272;2023-09-19T00:53:52;19.00;81.10
38333;DHT22;25748;46.670;14.272;2023-09-19T00:56:18;19.00;81.00
38333;DHT22;25748;46.670;14.272;2023-09-19T00:58:45;18.90;80.80
38333;DHT22;25748;46.670;14.272;2023-09-19T01:01:12;18.90;80.40
38333;DHT22;25748;46.670;14.272;2023-09-19T01:03:43;18.90;80.30
38333;DHT22;25748;46.670;14.272;2023-09-19T01:06:09;18.90;80.30
38333;DHT22;25748;46.670;14.272;2023-09-19T01:08:35;18.90;80.30
38333;DHT22;25748;46.670;14.272;2023-09-19T01:11:43;18.90;80.40
38333;DHT22;25748;46.670;14.272;2023-09-19T01:17:14;18.80;80.00
38333;DHT22;25748;46.670;14.272;2023-09-19T01:26:01;18.70;79.40
38333;DHT22;25748;46.670;14.272;2023-09-19T01:31:40;18.60;79.20
38333;DHT22;25748;46.670;14.272;2023-09-19T01:34:08;18.60;79.10
38333;DHT22;25748;46.670;14.272;2023-09-19T01:36:37;18.60;79.10
38333;DHT22;25748;46.670;14.272;2023-09-19T01:39:12;18.50;78.30
38333;DHT22;25748;46.670;14.272;2023-09-19T01:41:51;18.40;78.00
38333;DHT22;25748;46.670;14.272;2023-09-19T01:44:44;18.40;78.30
38333;DHT22;25748;46.670;14.272;2023-09-19T01:50:55;18.20;79.20
38333;DHT22;25748;46.670;14.272;2023-09-19T01:53:33;18.10;79.60
38333;DHT22;25748;46.670;14.272;2023-09-19T01:56:01;18.00;79.60
38333;DHT22;25748;46.670;14.272;2023-09-19T01:58:42;18.00;80.00
38333;DHT22;25748;46.670;14.272;2023-09-19T02:01:11;17.90;79.60
38333;DHT22;25748;46.670;14.272;2023-09-19T02:03:39;17.90;80.00
38333;DHT22;25748;46.670;14.272;2023-09-19T02:06:06;17.90;80.00
38333;DHT22;25748;46.670;14.272;2023-09-19T02:08:37;17.90;80.20
38333;DHT22;25748;46.670;14.272;2023-09-19T02:11:02;17.90;80.30
38333;DHT22;25748;46.670;14.272;2023-09-19T02:13:28;17.90;80.20
38333;DHT22;25748;46.670;14.272;2023-09-19T02:15:56;17.80;79.80
38333;DHT22;25748;46.670;14.272;2023-09-19T02:18:21;17.80;80.00
38333;DHT22;25748;46.670;14.272;2023-09-19T02:20:47;17.80;79.90
38333;DHT22;25748;46.670;14.272;2023-09-19T02:23:13;17.70;79.70
38333;DHT22;25748;46.670;14.272;2023-09-19T02:25:41;17.70;79.80
38333;DHT22;25748;46.670;14.272;2023-09-19T02:28:07;17.70;79.80
38333;DHT22;25748;46.670;14.272;2023-09-19T02:30:34;17.70;79.60
38333;DHT22;25748;46.670;14.272;2023-09-19T02:33:01;17.60;79.60
38333;DHT22;25748;46.670;14.272;2023-09-19T02:35:27;17.60;79.70
38333;DHT22;25748;46.670;14.272;2023-09-19T02:37:53;17.60;79.70
38333;DHT22;25748;46.670;14.272;2023-09-19T02:40:19;17.60;79.60
38333;DHT22;25748;46.670;14.272;2023-09-19T02:42:49;17.60;79.60
38333;DHT22;25748;46.670;14.272;2023-09-19T02:45:18;17.60;79.40
38333;DHT22;25748;46.670;14.272;2023-09-19T02:47:45;17.60;79.20
38333;DHT22;25748;46.670;14.272;2023-09-19T02:50:11;17.50;79.30
38333;DHT22;25748;46.670;14.272;2023-09-19T02:52:43;17.50;79.70
38333;DHT22;25748;46.670;14.272;2023-09-19T02:55:15;17.50;79.60
38333;DHT22;25748;46.670;14.272;2023-09-19T02:57:47;17.50;79.50
38333;DHT22;25748;46.670;14.272;2023-09-19T03:00:13;17.50;79.70
38333;DHT22;25748;46.670;14.272;2023-09-19T03:02:39;17.50;79.50
38333;DHT22;25748;46.670;14.272;2023-09-19T03:05:07;17.50;79.60
38333;DHT22;25748;46.670;14.272;2023-09-19T03:07:33;17.50;79.60
38333;DHT22;25748;46.670;14.272;2023-09-19T03:09:59;17.40;79.40
38333;DHT22;25748;46.670;14.272;2023-09-19T03:12:26;17.40;79.60
38333;DHT22;25748;46.670;14.272;2023-09-19T03:14:52;17.40;79.70
38333;DHT22;25748;46.670;14.272;2023-09-19T03:17:18;17.40;79.80
38333;DHT22;25748;46.670;14.272;2023-09-19T03:19:45;17.30;79.70
38333;DHT22;25748;46.670;14.272;2023-09-19T03:22:13;17.30;79.80
38333;DHT22;25748;46.670;14.272;2023-09-19T03:24:39;17.30;80.00
38333;DHT22;25748;46.670;14.272;2023-09-19T03:27:05;17.30;80.10
38333;DHT22;25748;46.670;14.272;2023-09-19T03:29:31;17.30;80.20
38333;DHT22;25748;46.670;14.272;2023-09-19T03:31:56;17.30;80.30
38333;DHT22;25748;46.670;14.272;2023-09-19T03:34:22;17.30;80.60
38333;DHT22;25748;46.670;14.272;2023-09-19T03:36:48;17.30;80.70
38333;DHT22;25748;46.670;14.272;2023-09-19T03:39:13;17.30;80.80
38333;DHT22;25748;46.670;14.272;2023-09-19T03:41:41;17.30;80.70
38333;DHT22;25748;46.670;14.272;2023-09-19T03:44:07;17.30;80.60
38333;DHT22;25748;46.670;14.272;2023-09-19T03:46:32;17.30;80.30
38333;DHT22;25748;46.670;14.272;2023-09-19T03:49:06;17.30;80.10
38333;DHT22;25748;46.670;14.272;2023-09-19T03:51:31;17.20;80.00
38333;DHT22;25748;46.670;14.272;2023-09-19T03:53:59;17.20;80.00
38333;DHT22;25748;46.670;14.272;2023-09-19T03:56:25;17.20;80.10
38333;DHT22;25748;46.670;14.272;2023-09-19T03:58:51;17.20;80.20
38333;DHT22;25748;46.670;14.272;2023-09-19T04:01:16;17.10;80.10
38333;DHT22;25748;46.670;14.272;2023-09-19T04:03:44;17.10;80.20
38333;DHT22;25748;46.670;14.272;2023-09-19T04:06:16;17.10;80.40
38333;DHT22;25748;46.670;14.272;2023-09-19T04:08:42;17.10;80.40
38333;DHT22;25748;46.670;14.272;2023-09-19T04:11:10;17.10;80.50
38333;DHT22;25748;46.670;14.272;2023-09-19T04:13:36;17.10;80.40
38333;DHT22;25748;46.670;14.272;2023-09-19T04:16:02;17.10;80.40
38333;DHT22;25748;46.670;14.272;2023-09-19T04:18:30;17.00;80.50
38333;DHT22;25748;46.670;14.272;2023-09-19T04:21:02;17.10;80.70
38333;DHT22;25748;46.670;14.272;2023-09-19T04:23:29;17.10;80.70
38333;DHT22;25748;46.670;14.272;2023-09-19T04:25:56;17.00;80.70
38333;DHT22;25748;46.670;14.272;2023-09-19T04:28:22;17.00;80.60
38333;DHT22;25748;46.670;14.272;2023-09-19T04:30:51;17.00;80.60
38333;DHT22;25748;46.670;14.272;2023-09-19T04:33:16;17.00;80.80
38333;DHT22;25748;46.670;14.272;2023-09-19T04:35:42;16.90;80.80
38333;DHT22;25748;46.670;14.272;2023-09-19T04:38:08;17.00;81.00
38333;DHT22;25748;46.670;14.272;2023-09-19T04:40:34;16.90;81.00
38333;DHT22;25748;46.670;14.272;2023-09-19T04:43:00;16.90;80.90
38333;DHT22;25748;46.670;14.272;2023-09-19T04:45:27;16.90;80.80
38333;DHT22;25748;46.670;14.272;2023-09-19T04:47:53;16.90;80.70
38333;DHT22;25748;46.670;14.272;2023-09-19T04:50:19;16.90;80.70
38333;DHT22;25748;46.670;14.272;2023-09-19T04:52:50;16.80;80.50
38333;DHT22;25748;46.670;14.272;2023-09-19T04:55:18;16.80;80.70
38333;DHT22;25748;46.670;14.272;2023-09-19T04:57:48;16.80;81.00
38333;DHT22;25748;46.670;14.272;2023-09-19T05:00:18;16.80;81.00
38333;DHT22;25748;46.670;14.272;2023-09-19T05:02:45;16.80;80.80
38333;DHT22;25748;46.670;14.272;2023-09-19T05:05:11;16.80;80.40
38333;DHT22;25748;46.670;14.272;2023-09-19T05:07:41;16.70;80.70
38333;DHT22;25748;46.670;14.272;2023-09-19T05:10:08;16.70;80.80
38333;DHT22;25748;46.670;14.272;2023-09-19T05:12:34;16.70;80.90
38333;DHT22;25748;46.670;14.272;2023-09-19T05:15:04;16.70;81.10
38333;DHT22;25748;46.670;14.272;2023-09-19T05:17:30;16.70;81.40
38333;DHT22;25748;46.670;14.272;2023-09-19T05:19:57;16.70;81.60
38333;DHT22;25748;46.670;14.272;2023-09-19T05:22:37;16.70;81.70
38333;DHT22;25748;46.670;14.272;2023-09-19T05:25:05;16.70;81.80
38333;DHT22;25748;46.670;14.272;2023-09-19T05:27:32;16.70;81.60
38333;DHT22;25748;46.670;14.272;2023-09-19T05:29:59;16.70;81.60
38333;DHT22;25748;46.670;14.272;2023-09-19T05:32:25;16.70;81.60
38333;DHT22;25748;46.670;14.272;2023-09-19T05:34:50;16.60;81.50
38333;DHT22;25748;46.670;14.272;2023-09-19T05:37:19;16.60;81.50
38333;DHT22;25748;46.670;14.272;2023-09-19T05:39:45;16.60;81.40
38333;DHT22;25748;46.670;14.272;2023-09-19T05:42:10;16.60;81.20
38333;DHT22;25748;46.670;14.272;2023-09-19T05:44:36;16.60;81.00
38333;DHT22;25748;46.670;14.272;2023-09-19T05:47:03;16.50;80.90
38333;DHT22;25748;46.670;14.272;2023-09-19T05:49:29;16.50;80.80
38333;DHT22;25748;46.670;14.272;2023-09-19T05:51:55;16.40;80.40
38333;DHT22;25748;46.670;14.272;2023-09-19T05:54:24;16.40;80.40
38333;DHT22;25748;46.670;14.272;2023-09-19T05:56:50;16.40;80.30
38333;DHT22;25748;46.670;14.272;2023-09-19T05:59:21;16.30;80.20
38333;DHT22;25748;46.670;14.272;2023-09-19T06:02:09;16.30;80.20
38333;DHT22;25748;46.670;14.272;2023-09-19T06:04:54;16.30;80.30
38333;DHT22;25748;46.670;14.272;2023-09-19T06:07:29;16.30;80.50
38333;DHT22;25748;46.670;14.272;2023-09-19T06:10:05;16.30;80.70
38333;DHT22;25748;46.670;14.272;2023-09-19T06:23:12;16.50;83.10
38333;DHT22;25748;46.670;14.272;2023-09-19T06:32:02;16.90;84.60
38333;DHT22;25748;46.670;14.272;2023-09-19T06:34:42;17.10;85.30
38333;DHT22;25748;46.670;14.272;2023-09-19T06:42:35;17.50;83.10
38333;DHT22;25748;46.670;14.272;2023-09-19T06:48:14;17.70;83.10
38333;DHT22;25748;46.670;14.272;2023-09-19T06:50:40;17.80;83.10
38333;DHT22;25748;46.670;14.272;2023-09-19T06:53:06;17.90;82.80
38333;DHT22;25748;46.670;14.272;2023-09-19T06:55:32;17.90;82.30
38333;DHT22;25748;46.670;14.272;2023-09-19T06:57:57;18.00;81.80
38333;DHT22;25748;46.670;14.272;2023-09-19T07:00:24;18.10;81.40
38333;DHT22;25748;46.670;14.272;2023-09-19T07:03:07;18.10;81.20
38333;DHT22;25748;46.670;14.272;2023-09-19T07:05:39;18.20;80.70
38333;DHT22;25748;46.670;14.272;2023-09-19T07:08:06;18.20;80.60
38333;DHT22;25748;46.670;14.272;2023-09-19T07:10:33;18.30;80.50
38333;DHT22;25748;46.670;14.272;2023-09-19T07:13:06;18.40;80.20
38333;DHT22;25748;46.670;14.272;2023-09-19T07:15:37;18.50;80.30
38333;DHT22;25748;46.670;14.272;2023-09-19T07:18:14;18.60;79.80
38333;DHT22;25748;46.670;14.272;2023-09-19T07:20:42;18.70;79.00
38333;DHT22;25748;46.670;14.272;2023-09-19T07:23:17;18.80;78.20
38333;DHT22;25748;46.670;14.272;2023-09-19T07:25:43;18.90;77.80
38333;DHT22;25748;46.670;14.272;2023-09-19T07:28:10;18.90;77.50
38333;DHT22;25748;46.670;14.272;2023-09-19T07:30:36;19.00;76.70
38333;DHT22;25748;46.670;14.272;2023-09-19T07:33:03;19.00;76.40
38333;DHT22;25748;46.670;14.272;2023-09-19T07:35:30;19.10;76.30
38333;DHT22;25748;46.670;14.272;2023-09-19T07:37:56;19.20;75.40
38333;DHT22;25748;46.670;14.272;2023-09-19T07:40:27;19.20;74.80
38333;DHT22;25748;46.670;14.272;2023-09-19T07:42:55;19.20;74.00
38333;DHT22;25748;46.670;14.272;2023-09-19T07:45:21;19.20;73.60
38333;DHT22;25748;46.670;14.272;2023-09-19T07:47:49;19.20;73.70
38333;DHT22;25748;46.670;14.272;2023-09-19T07:50:16;19.20;73.40
38333;DHT22;25748;46.670;14.272;2023-09-19T07:52:44;19.20;74.00
38333;DHT22;25748;46.670;14.272;2023-09-19T07:55:10;19.20;73.60
38333;DHT22;25748;46.670;14.272;2023-09-19T07:57:37;19.20;73.40
38333;DHT22;25748;46.670;14.272;2023-09-19T08:00:03;19.30;74.10
38333;DHT22;25748;46.670;14.272;2023-09-19T08:02:34;19.30;73.60
38333;DHT22;25748;46.670;14.272;2023-09-19T08:05:00;19.40;73.40
38333;DHT22;25748;46.670;14.272;2023-09-19T08:07:26;19.50;73.10
38333;DHT22;25748;46.670;14.272;2023-09-19T08:09:52;19.50;73.30
38333;DHT22;25748;46.670;14.272;2023-09-19T08:12:17;19.50;71.30
38333;DHT22;25748;46.670;14.272;2023-09-19T08:14:45;19.60;72.30
38333;DHT22;25748;46.670;14.272;2023-09-19T08:17:12;19.70;72.30
38333;DHT22;25748;46.670;14.272;2023-09-19T08:19:38;19.80;72.00
38333;DHT22;25748;46.670;14.272;2023-09-19T08:22:07;20.00;71.50
38333;DHT22;25748;46.670;14.272;2023-09-19T08:24:35;20.00;69.90
38333;DHT22;25748;46.670;14.272;2023-09-19T08:27:01;20.10;69.30
38333;DHT22;25748;46.670;14.272;2023-09-19T08:29:30;20.10;68.90
38333;DHT22;25748;46.670;14.272;2023-09-19T08:31:57;20.10;68.80
38333;DHT22;25748;46.670;14.272;2023-09-19T08:34:23;20.20;68.70
38333;DHT22;25748;46.670;14.272;2023-09-19T08:36:54;20.20;68.90
38333;DHT22;25748;46.670;14.272;2023-09-19T08:39:23;20.20;68.30
38333;DHT22;25748;46.670;14.272;2023-09-19T08:41:49;20.20;67.20
38333;DHT22;25748;46.670;14.272;2023-09-19T08:44:15;20.30;66.90
38333;DHT22;25748;46.670;14.272;2023-09-19T08:46:42;20.30;67.10
38333;DHT22;25748;46.670;14.272;2023-09-19T08:49:19;20.40;67.20
38333;DHT22;25748;46.670;14.272;2023-09-19T08:51:54;20.50;68.30
38333;DHT22;25748;46.670;14.272;2023-09-19T08:54:31;20.50;66.50
38333;DHT22;25748;46.670;14.272;2023-09-19T08:57:01;20.70;67.50
38333;DHT22;25748;46.670;14.272;2023-09-19T08:59:34;20.80;66.30
38333;DHT22;25748;46.670;14.272;2023-09-19T09:02:01;21.10;67.60
38333;DHT22;25748;46.670;14.272;2023-09-19T09:04:29;21.40;65.00
38333;DHT22;25748;46.670;14.272;2023-09-19T09:06:56;21.70;65.40
38333;DHT22;25748;46.670;14.272;2023-09-19T09:09:23;22.00;64.80
38333;DHT22;25748;46.670;14.272;2023-09-19T09:11:51;22.30;63.90
38333;DHT22;25748;46.670;14.272;2023-09-19T09:14:19;22.50;62.30
38333;DHT22;25748;46.670;14.272;2023-09-19T09:16:46;22.60;61.60
38333;DHT22;25748;46.670;14.272;2023-09-19T09:19:14;22.80;60.10
38333;DHT22;25748;46.670;14.272;2023-09-19T09:21:41;23.00;59.00
38333;DHT22;25748;46.670;14.272;2023-09-19T09:24:26;23.10;58.90
38333;DHT22;25748;46.670;14.272;2023-09-19T09:26:53;23.30;58.60
38333;DHT22;25748;46.670;14.272;2023-09-19T09:29:44;23.30;57.70
38333;DHT22;25748;46.670;14.272;2023-09-19T09:32:23;23.30;57.70
38333;DHT22;25748;46.670;14.272;2023-09-19T09:35:00;23.20;56.70
38333;DHT22;25748;46.670;14.272;2023-09-19T09:37:26;23.10;57.30
38333;DHT22;25748;46.670;14.272;2023-09-19T09:40:01;23.10;57.70
38333;DHT22;25748;46.670;14.272;2023-09-19T09:42:42;23.20;57.80
38333;DHT22;25748;46.670;14.272;2023-09-19T09:47:49;23.50;58.20
38333;DHT22;25748;46.670;14.272;2023-09-19T09:53:03;23.70;56.60
38333;DHT22;25748;46.670;14.272;2023-09-19T09:56:04;23.80;57.10
38333;DHT22;25748;46.670;14.272;2023-09-19T09:58:51;23.90;56.70
38333;DHT22;25748;46.670;14.272;2023-09-19T10:01:21;24.20;57.20
38333;DHT22;25748;46.670;14.272;2023-09-19T10:03:57;24.40;56.10
38333;DHT22;25748;46.670;14.272;2023-09-19T10:06:23;24.50;56.20
38333;DHT22;25748;46.670;14.272;2023-09-19T10:08:58;24.60;56.00
38333;DHT22;25748;46.670;14.272;2023-09-19T10:12:03;24.80;55.80
38333;DHT22;25748;46.670;14.272;2023-09-19T10:14:33;24.90;55.00
38333;DHT22;25748;46.670;14.272;2023-09-19T10:17:02;25.10;55.10
38333;DHT22;25748;46.670;14.272;2023-09-19T10:19:35;25.20;54.60
38333;DHT22;25748;46.670;14.272;2023-09-19T10:22:02;25.20;54.90
38333;DHT22;25748;46.670;14.272;2023-09-19T10:24:30;25.40;55.30
38333;DHT22;25748;46.670;14.272;2023-09-19T10:26:57;25.70;54.80
38333;DHT22;25748;46.670;14.272;2023-09-19T10:29:24;25.80;54.30
38333;DHT22;25748;46.670;14.272;2023-09-19T10:31:56;25.80;53.50
38333;DHT22;25748;46.670;14.272;2023-09-19T10:34:25;25.90;53.50
38333;DHT22;25748;46.670;14.272;2023-09-19T10:36:52;26.00;54.00
38333;DHT22;25748;46.670;14.272;2023-09-19T10:39:19;26.00;53.00
38333;DHT22;25748;46.670;14.272;2023-09-19T10:41:52;26.00;52.80
38333;DHT22;25748;46.670;14.272;2023-09-19T10:44:24;26.10;53.60
38333;DHT22;25748;46.670;14.272;2023-09-19T10:46:54;26.10;52.70
38333;DHT22;25748;46.670;14.272;2023-09-19T10:49:21;26.20;52.40
38333;DHT22;25748;46.670;14.272;2023-09-19T10:51:50;26.40;52.60
38333;DHT22;25748;46.670;14.272;2023-09-19T10:54:20;26.50;51.60
38333;DHT22;25748;46.670;14.272;2023-09-19T10:56:49;26.60;51.50
38333;DHT22;25748;46.670;14.272;2023-09-19T10:59:18;26.30;51.40
38333;DHT22;25748;46.670;14.272;2023-09-19T11:01:53;26.40;51.50
38333;DHT22;25748;46.670;14.272;2023-09-19T11:04:28;26.50;51.00
38333;DHT22;25748;46.670;14.272;2023-09-19T11:07:01;26.60;50.60
38333;DHT22;25748;46.670;14.272;2023-09-19T11:09:56;26.60;50.40
38333;DHT22;25748;46.670;14.272;2023-09-19T11:15:02;26.50;49.70
38333;DHT22;25748;46.670;14.272;2023-09-19T11:17:40;26.50;50.20
38333;DHT22;25748;46.670;14.272;2023-09-19T11:30:36;27.20;50.10
38333;DHT22;25748;46.670;14.272;2023-09-19T11:33:29;27.50;49.90
38333;DHT22;25748;46.670;14.272;2023-09-19T11:36:14;27.80;48.90
38333;DHT22;25748;46.670;14.272;2023-09-19T11:46:52;28.20;48.20
38333;DHT22;25748;46.670;14.272;2023-09-19T11:49:40;28.10;48.50
38333;DHT22;25748;46.670;14.272;2023-09-19T11:52:06;28.10;48.00
38333;DHT22;25748;46.670;14.272;2023-09-19T11:54:35;28.10;47.60
38333;DHT22;25748;46.670;14.272;2023-09-19T11:57:02;27.90;47.60
38333;DHT22;25748;46.670;14.272;2023-09-19T11:59:30;28.00;49.40
38333;DHT22;25748;46.670;14.272;2023-09-19T12:02:05;28.10;47.30
38333;DHT22;25748;46.670;14.272;2023-09-19T12:04:38;28.10;47.60
38333;DHT22;25748;46.670;14.272;2023-09-19T12:07:06;28.20;47.20
38333;DHT22;25748;46.670;14.272;2023-09-19T12:09:39;28.50;47.30
38333;DHT22;25748;46.670;14.272;2023-09-19T12:12:08;28.60;46.30
38333;DHT22;25748;46.670;14.272;2023-09-19T12:14:34;28.50;45.60
38333;DHT22;25748;46.670;14.272;2023-09-19T12:17:00;28.60;46.20
38333;DHT22;25748;46.670;14.272;2023-09-19T12:19:28;28.80;45.70
38333;DHT22;25748;46.670;14.272;2023-09-19T12:22:01;28.70;45.80
38333;DHT22;25748;46.670;14.272;2023-09-19T12:24:30;28.80;46.30
38333;DHT22;25748;46.670;14.272;2023-09-19T12:27:06;28.80;47.40
38333;DHT22;25748;46.670;14.272;2023-09-19T12:29:42;28.80;46.60
38333;DHT22;25748;46.670;14.272;2023-09-19T12:32:09;28.70;46.30
38333;DHT22;25748;46.670;14.272;2023-09-19T12:34:35;28.80;46.40
38333;DHT22;25748;46.670;14.272;2023-09-19T12:39:47;28.60;46.00
38333;DHT22;25748;46.670;14.272;2023-09-19T12:42:19;28.70;45.30
38333;DHT22;25748;46.670;14.272;2023-09-19T12:44:47;28.50;45.00
38333;DHT22;25748;46.670;14.272;2023-09-19T12:47:17;28.50;46.10
38333;DHT22;25748;46.670;14.272;2023-09-19T12:52:41;28.70;46.10
38333;DHT22;25748;46.670;14.272;2023-09-19T12:55:08;28.80;44.80
38333;DHT22;25748;46.670;14.272;2023-09-19T12:57:50;28.70;44.40
38333;DHT22;25748;46.670;14.272;2023-09-19T13:00:20;28.70;44.60
38333;DHT22;25748;46.670;14.272;2023-09-19T13:08:38;28.70;45.30
38333;DHT22;25748;46.670;14.272;2023-09-19T13:11:17;28.70;45.50
38333;DHT22;25748;46.670;14.272;2023-09-19T13:14:19;28.70;45.20
38333;DHT22;25748;46.670;14.272;2023-09-19T13:17:05;28.70;44.50
38333;DHT22;25748;46.670;14.272;2023-09-19T13:19:49;28.60;43.80
38333;DHT22;25748;46.670;14.272;2023-09-19T13:22:43;28.60;43.70
38333;DHT22;25748;46.670;14.272;2023-09-19T13:25:20;28.40;43.80
38333;DHT22;25748;46.670;14.272;2023-09-19T13:27:48;28.40;44.50
38333;DHT22;25748;46.670;14.272;2023-09-19T13:30:17;28.40;43.70
38333;DHT22;25748;46.670;14.272;2023-09-19T13:32:43;28.40;43.00
38333;DHT22;25748;46.670;14.272;2023-09-19T13:35:09;28.30;43.00
38333;DHT22;25748;46.670;14.272;2023-09-19T13:37:35;28.30;43.00
38333;DHT22;25748;46.670;14.272;2023-09-19T13:40:05;28.40;42.90
38333;DHT22;25748;46.670;14.272;2023-09-19T13:42:31;28.20;42.80
38333;DHT22;25748;46.670;14.272;2023-09-19T13:44:57;28.20;42.80
38333;DHT22;25748;46.670;14.272;2023-09-19T13:47:23;28.30;43.40
38333;DHT22;25748;46.670;14.272;2023-09-19T13:49:50;28.20;42.90
38333;DHT22;25748;46.670;14.272;2023-09-19T13:52:19;28.20;42.10
38333;DHT22;25748;46.670;14.272;2023-09-19T13:54:44;28.30;42.40
38333;DHT22;25748;46.670;14.272;2023-09-19T13:57:10;28.20;42.50
38333;DHT22;25748;46.670;14.272;2023-09-19T13:59:36;28.20;41.70
38333;DHT22;25748;46.670;14.272;2023-09-19T14:02:02;28.20;42.90
38333;DHT22;25748;46.670;14.272;2023-09-19T14:04:32;28.30;42.50
38333;DHT22;25748;46.670;14.272;2023-09-19T14:07:00;28.30;42.90
38333;DHT22;25748;46.670;14.272;2023-09-19T14:09:26;28.30;42.50
38333;DHT22;25748;46.670;14.272;2023-09-19T14:11:52;28.20;42.60
38333;DHT22;25748;46.670;14.272;2023-09-19T14:14:20;28.20;42.90
38333;DHT22;25748;46.670;14.272;2023-09-19T14:16:47;28.30;42.40
38333;DHT22;25748;46.670;14.272;2023-09-19T14:19:13;28.20;42.40
38333;DHT22;25748;46.670;14.272;2023-09-19T14:21:42;28.20;42.20
38333;DHT22;25748;46.670;14.272;2023-09-19T14:24:09;28.10;41.00
38333;DHT22;25748;46.670;14.272;2023-09-19T14:26:36;28.20;41.20
38333;DHT22;25748;46.670;14.272;2023-09-19T14:29:01;28.20;40.70
38333;DHT22;25748;46.670;14.272;2023-09-19T14:31:27;28.20;41.10
38333;DHT22;25748;46.670;14.272;2023-09-19T14:33:54;28.20;40.70
38333;DHT22;25748;46.670;14.272;2023-09-19T14:36:22;28.00;40.80
38333;DHT22;25748;46.670;14.272;2023-09-19T14:38:47;28.00;41.40
38333;DHT22;25748;46.670;14.272;2023-09-19T14:41:13;28.00;40.90
38333;DHT22;25748;46.670;14.272;2023-09-19T14:43:39;28.10;41.50
38333;DHT22;25748;46.670;14.272;2023-09-19T14:46:08;28.10;41.70
38333;DHT22;25748;46.670;14.272;2023-09-19T14:48:35;28.10;41.10
38333;DHT22;25748;46.670;14.272;2023-09-19T14:51:07;28.00;40.50
38333;DHT22;25748;46.670;14.272;2023-09-19T14:53:37;28.00;41.60
38333;DHT22;25748;46.670;14.272;2023-09-19T14:56:04;28.00;41.90
38333;DHT22;25748;46.670;14.272;2023-09-19T14:58:31;28.00;41.80
38333;DHT22;25748;46.670;14.272;2023-09-19T15:03:29;28.00;42.20
38333;DHT22;25748;46.670;14.272;2023-09-19T15:06:14;28.10;41.30
38333;DHT22;25748;46.670;14.272;2023-09-19T15:08:44;28.00;40.60
38333;DHT22;25748;46.670;14.272;2023-09-19T15:11:31;27.90;40.20
38333;DHT22;25748;46.670;14.272;2023-09-19T15:13:56;27.90;41.30
38333;DHT22;25748;46.670;14.272;2023-09-19T15:16:22;27.80;42.90
38333;DHT22;25748;46.670;14.272;2023-09-19T15:18:48;27.80;43.40
38333;DHT22;25748;46.670;14.272;2023-09-19T15:21:14;27.80;43.70
38333;DHT22;25748;46.670;14.272;2023-09-19T15:23:41;27.90;43.60
38333;DHT22;25748;46.670;14.272;2023-09-19T15:26:12;27.70;43.30
38333;DHT22;25748;46.670;14.272;2023-09-19T15:28:39;27.80;44.30
38333;DHT22;25748;46.670;14.272;2023-09-19T15:31:12;27.60;43.20
38333;DHT22;25748;46.670;14.272;2023-09-19T15:33:38;27.60;43.70
38333;DHT22;25748;46.670;14.272;2023-09-19T15:36:05;27.50;43.80
38333;DHT22;25748;46.670;14.272;2023-09-19T15:38:32;27.40;44.50
38333;DHT22;25748;46.670;14.272;2023-09-19T15:41:20;27.40;45.10
38333;DHT22;25748;46.670;14.272;2023-09-19T15:43:46;27.30;44.60
38333;DHT22;25748;46.670;14.272;2023-09-19T15:46:12;27.10;44.80
38333;DHT22;25748;46.670;14.272;2023-09-19T15:48:39;27.10;46.00
38333;DHT22;25748;46.670;14.272;2023-09-19T15:51:04;27.00;46.60
38333;DHT22;25748;46.670;14.272;2023-09-19T15:53:51;26.90;46.90
38333;DHT22;25748;46.670;14.272;2023-09-19T15:56:18;26.80;47.30
38333;DHT22;25748;46.670;14.272;2023-09-19T15:58:47;26.60;47.50
38333;DHT22;25748;46.670;14.272;2023-09-19T16:01:14;26.50;47.60
38333;DHT22;25748;46.670;14.272;2023-09-19T16:03:43;26.30;46.90
38333;DHT22;25748;46.670;14.272;2023-09-19T16:06:10;26.20;46.40
38333;DHT22;25748;46.670;14.272;2023-09-19T16:08:43;26.00;46.80
38333;DHT22;25748;46.670;14.272;2023-09-19T16:11:10;25.90;47.00
38333;DHT22;25748;46.670;14.272;2023-09-19T16:13:37;25.70;46.60
38333;DHT22;25748;46.670;14.272;2023-09-19T16:16:04;25.60;47.10
38333;DHT22;25748;46.670;14.272;2023-09-19T16:18:30;25.50;47.20
38333;DHT22;25748;46.670;14.272;2023-09-19T16:21:02;25.30;47.40
38333;DHT22;25748;46.670;14.272;2023-09-19T16:23:28;25.20;47.70
38333;DHT22;25748;46.670;14.272;2023-09-19T16:26:23;25.00;47.70
38333;DHT22;25748;46.670;14.272;2023-09-19T16:28:51;24.90;48.10
38333;DHT22;25748;46.670;14.272;2023-09-19T16:31:16;24.80;47.70
38333;DHT22;25748;46.670;14.272;2023-09-19T16:33:46;24.70;47.80
38333;DHT22;25748;46.670;14.272;2023-09-19T16:36:19;24.50;48.00
38333;DHT22;25748;46.670;14.272;2023-09-19T16:38:46;24.40;48.90
38333;DHT22;25748;46.670;14.272;2023-09-19T16:41:14;24.30;49.70
38333;DHT22;25748;46.670;14.272;2023-09-19T16:43:42;24.20;49.60
38333;DHT22;25748;46.670;14.272;2023-09-19T16:46:10;24.00;49.80
38333;DHT22;25748;46.670;14.272;2023-09-19T16:48:43;23.90;50.10
38333;DHT22;25748;46.670;14.272;2023-09-19T16:51:11;23.70;50.50
38333;DHT22;25748;46.670;14.272;2023-09-19T16:53:39;23.60;50.90